Osijek - Cepin, Croatia

9:31 AM CEST on September 05, 2015 (GMT +0200)
Retfala | | Change Station
CLOSE
Current Station
Personal Weather Station
Location: Osijek, Osjecko-baranjska
Elevation: 285 ft
Nearby Weather Stations

Elev 285 ft 45.56 °N, 18.65 °E | Updated 16 seconds ago

Light Rain
Light Rain
65.3 °F
Feels Like 65.3 °F
N
4.9
Wind Variable Wind from NNW
Gusts 10.1 mph

Today
High -- | Low -- °F
--% Chance of Precip.
Yesterday
High -- | Low -- °F
Precip. -- in
6:11 AM 7:16 PM
Waning Gibbous, 51% visible
Pressure 29.89 in
Visibility 4.3 miles
Clouds Scattered Clouds 1300 ft
Mostly Cloudy 3300 ft
Dew Point 61 °F
Humidity 87%
Rainfall 0.05 in
Snow Depth Not available.
UV 2 out of 12
Pollen Not available.
Air Quality Not available.
Flu Activity Not available.
METAR LDOS 050730Z 32009KT 7000 -RA SCT013 BKN033 20/19 Q1012
Pressure 29.89 in
Visibility 4.3 miles
Clouds Scattered Clouds 1300 ft
Mostly Cloudy 3300 ft
Dew Point 61 °F
Humidity 87%
Rainfall 0.05 in
Snow Depth Not available.
UV 2 out of 12
Pollen Not available.
Air Quality Not available.
Flu Activity Not available.
METAR LDOS 050730Z 32009KT 7000 -RA SCT013 BKN033 20/19 Q1012

10-Day Weather Forecast

×

Almanac

Astronomy

Sep. 05, 2015 Rise Set
Actual Time
Civil Twilight
Nautical Twilight
Astronomical Twilight
Moon
Length of Visible Light
Length of Day
Tomorrow will be .
, % of the Moon is Illuminated

Today's Extremes

Country Highs Country Lows

Community

WunderPhotos

Upload Photos

1,852,436 photos uploaded!

WunderBlogs® & News

Nearby

Air Quality

  Air Quality AQ Index Pollutant
Not available.

Snow Depth

Station Depth Elevation

Earthquake Activity

City Distance Mag. Time & Date
Minimum magnitude displayed is 2.5.

Coastal Water Temperatures

Place Temperature

Stations

Nearby Weather Stations

Station Location Temp. Windchill Dew Point Humidity Wind Precip. Elev Updated Type